Flingsville, Kentucky
Current Conditions -  °F | °C
As of 12:52 AM on Thursday 27 Nov 2014 (Local Time) from KCVG Reporting Station
Overcast Overcast  
Wind Chill: 23°   Ceiling: 10000
Heat Index: 29°   Visibility: 8mi
Dew Point: 22°   Wind: 6mph
Humidity: 75%   Direction: 350°N
Pressure: 30.05"   Gusts: NA
Location:  38.7783°N, 84.6037°W
Report Text: KCVG 270552Z 35005KT 8SM SCT085 BKN100 OVC200 M02/M06 A3005 RMK AO2 SLP182 T10171056 10022 21017 58001
Loading
Personal Weather Stations






























Interactive Weather Map New forecast layout! Learn more

10-Day Weather Forecast

Advertisements
Track Severe Weather on mobile